Time;durP1;ratioP1;P1;durP2;ratioP2;P2;SDS_P1;SDS_P2;PMS_P1;PMS_P2;Temp;Humidity;BMP_temperature;BMP_pressure;BME280_temperature;BME280_humidity;BME280_pressure;Samples;Min_cycle;Max_cycle;Signal;HPM_P1;HPM_P2
2023/12/14 00:02:20;;;;;;;10.85;5.93;;;5.60;99.90;;;;;;5004596;28;20052;-79
2023/12/14 00:04:46;;;;;;;9.40;4.38;;;5.50;99.90;;;;;;5013488;28;20040;-80
2023/12/14 00:07:14;;;;;;;9.25;4.75;;;5.60;99.90;;;;;;5006588;28;20406;-79
2023/12/14 00:09:40;;;;;;;9.98;5.10;;;5.60;99.90;;;;;;5004697;28;20053;-80
2023/12/14 00:12:06;;;;;;;12.10;5.88;;;5.60;99.90;;;;;;4997642;28;20034;-81
2023/12/14 00:14:31;;;;;;;9.82;5.13;;;5.60;99.90;;;;;;5028222;28;20424;-79
2023/12/14 00:16:59;;;;;;;9.73;5.03;;;5.50;99.90;;;;;;5000533;28;20076;-79
2023/12/14 00:19:24;;;;;;;10.10;5.45;;;5.60;99.90;;;;;;5012387;28;20049;-79
2023/12/14 00:21:50;;;;;;;11.60;4.85;;;5.60;99.90;;;;;;5014585;28;20486;-79
2023/12/14 00:24:16;;;;;;;10.57;4.90;;;5.50;99.90;;;;;;5001655;28;20037;-79
2023/12/14 00:26:41;;;;;;;10.27;5.22;;;5.60;99.90;;;;;;5029469;28;20379;-79
2023/12/14 00:29:07;;;;;;;9.05;5.15;;;5.50;99.90;;;;;;5031427;28;20038;-79
2023/12/14 00:31:32;;;;;;;11.55;5.32;;;5.50;99.90;;;;;;5014955;28;20073;-79
2023/12/14 00:33:58;;;;;;;10.00;4.38;;;5.50;99.90;;;;;;5012341;28;20043;-79
2023/12/14 00:36:23;;;;;;;7.78;4.40;;;5.60;99.90;;;;;;5031253;28;20057;-79
2023/12/14 00:38:49;;;;;;;10.60;5.20;;;5.60;99.90;;;;;;5014173;28;20033;-79
2023/12/14 00:41:15;;;;;;;10.48;4.72;;;5.60;99.90;;;;;;5031258;28;20068;-79
2023/12/14 00:43:41;;;;;;;11.40;4.55;;;5.50;99.90;;;;;;5029696;28;20080;-79
2023/12/14 00:46:07;;;;;;;11.30;5.00;;;5.50;99.90;;;;;;5014889;28;20041;-79
2023/12/14 00:48:33;;;;;;;10.20;4.70;;;5.50;99.90;;;;;;5014084;28;20039;-79
2023/12/14 00:50:58;;;;;;;7.85;4.45;;;5.50;99.90;;;;;;5014767;28;20040;-79
2023/12/14 00:53:24;;;;;;;11.18;4.70;;;5.60;99.90;;;;;;5014462;28;20065;-80
2023/12/14 00:55:50;;;;;;;10.98;4.60;;;5.50;99.90;;;;;;5034720;28;20123;-79
2023/12/14 00:58:15;;;;;;;8.15;4.18;;;5.40;99.90;;;;;;5016978;28;20044;-79
2023/12/14 01:00:42;;;;;;;9.25;4.75;;;5.50;99.90;;;;;;5034640;28;20037;-79
2023/12/14 01:03:08;;;;;;;7.45;3.45;;;5.50;99.90;;;;;;5015015;28;20500;-79
2023/12/14 01:05:33;;;;;;;7.55;4.43;;;5.50;99.90;;;;;;5031105;28;20037;-79
2023/12/14 01:07:59;;;;;;;8.10;4.25;;;5.50;99.90;;;;;;5018242;28;20037;-79
2023/12/14 01:10:25;;;;;;;9.50;4.90;;;5.40;99.90;;;;;;5018016;28;20044;-79
2023/12/14 01:12:51;;;;;;;10.23;4.68;;;5.40;99.90;;;;;;5017179;28;20051;-80
2023/12/14 01:15:16;;;;;;;8.25;4.63;;;5.40;99.90;;;;;;5014599;28;20043;-79
2023/12/14 01:17:42;;;;;;;9.95;4.68;;;5.30;99.90;;;;;;5034292;28;20038;-79
2023/12/14 01:20:08;;;;;;;10.18;4.50;;;5.40;99.90;;;;;;5017992;28;20037;-79
2023/12/14 01:22:34;;;;;;;8.20;3.83;;;5.30;99.90;;;;;;5017756;28;20081;-79
2023/12/14 01:25:00;;;;;;;9.05;4.30;;;5.40;99.90;;;;;;5016234;28;20080;-79
2023/12/14 01:27:25;;;;;;;10.80;4.75;;;5.40;99.90;;;;;;5015416;28;20030;-79
2023/12/14 01:29:51;;;;;;;8.57;3.92;;;5.30;99.90;;;;;;5016789;28;20099;-79
2023/12/14 01:32:16;;;;;;;8.15;4.03;;;5.40;99.90;;;;;;5017556;28;20050;-79
2023/12/14 01:34:42;;;;;;;8.85;4.97;;;5.50;99.90;;;;;;5016560;28;20302;-80
2023/12/14 01:37:08;;;;;;;9.07;4.55;;;5.40;99.90;;;;;;5016722;28;20128;-80
2023/12/14 01:39:33;;;;;;;8.32;4.13;;;5.40;99.90;;;;;;5017019;28;20443;-79
2023/12/14 01:41:59;;;;;;;8.27;4.32;;;5.40;99.90;;;;;;5033876;28;20108;-79
2023/12/14 01:44:24;;;;;;;10.48;4.88;;;5.40;99.90;;;;;;5032262;28;20099;-79
2023/12/14 01:46:51;;;;;;;8.43;4.18;;;5.30;99.90;;;;;;5016335;28;20030;-80
2023/12/14 01:49:16;;;;;;;8.57;4.40;;;5.30;99.90;;;;;;5017107;28;20037;-80
2023/12/14 01:51:42;;;;;;;9.50;4.88;;;5.30;99.90;;;;;;5033621;28;20046;-80
2023/12/14 01:54:08;;;;;;;9.77;4.45;;;5.30;99.90;;;;;;5016707;28;20068;-79
2023/12/14 01:56:33;;;;;;;8.85;4.43;;;5.30;99.90;;;;;;5017154;28;20486;-79
2023/12/14 01:58:59;;;;;;;11.52;4.88;;;5.30;99.90;;;;;;5032925;28;20502;-79
2023/12/14 02:01:31;;;;;;;8.63;4.57;;;5.30;99.90;;;;;;5016913;28;20052;-79
2023/12/14 02:03:56;;;;;;;12.23;5.55;;;5.30;99.90;;;;;;5015785;28;20374;-79
2023/12/14 02:06:22;;;;;;;9.60;4.93;;;5.30;99.90;;;;;;5016970;28;20037;-79
2023/12/14 02:08:48;;;;;;;9.95;4.82;;;5.30;99.90;;;;;;5014364;28;20038;-79
2023/12/14 02:11:14;;;;;;;11.90;5.32;;;5.40;99.90;;;;;;5017117;28;20120;-79
2023/12/14 02:13:39;;;;;;;9.93;5.25;;;5.30;99.90;;;;;;5032367;28;20474;-79
2023/12/14 02:16:05;;;;;;;10.80;4.65;;;5.30;99.90;;;;;;5016760;28;20034;-79
2023/12/14 02:18:31;;;;;;;11.05;5.32;;;5.30;99.90;;;;;;5031091;28;20035;-79
2023/12/14 02:20:56;;;;;;;12.38;5.60;;;5.30;99.90;;;;;;5016668;28;20095;-79
2023/12/14 02:23:22;;;;;;;12.98;5.43;;;5.30;99.90;;;;;;5016354;28;20808;-79
2023/12/14 02:25:48;;;;;;;10.48;5.10;;;5.30;99.90;;;;;;5032540;28;20448;-79
2023/12/14 02:28:13;;;;;;;14.15;6.18;;;5.30;99.90;;;;;;5015504;28;20120;-79
2023/12/14 02:30:39;;;;;;;11.48;5.57;;;5.20;99.90;;;;;;5033251;28;20421;-79
2023/12/14 02:33:04;;;;;;;9.05;4.43;;;5.20;99.90;;;;;;5016614;28;20545;-79
2023/12/14 02:35:30;;;;;;;12.18;5.70;;;5.30;99.90;;;;;;5031851;28;20038;-79
2023/12/14 02:37:56;;;;;;;11.50;5.15;;;5.30;99.90;;;;;;5013922;28;20120;-79
2023/12/14 02:40:21;;;;;;;11.90;5.72;;;5.30;99.90;;;;;;5022991;28;20110;-79
2023/12/14 02:42:47;;;;;;;11.57;6.03;;;5.30;99.90;;;;;;5032616;28;20410;-79
2023/12/14 02:45:13;;;;;;;12.93;5.70;;;5.20;99.90;;;;;;5031658;28;20052;-79
2023/12/14 02:47:38;;;;;;;12.57;6.13;;;5.20;99.90;;;;;;5032517;28;20037;-79
2023/12/14 02:50:04;;;;;;;10.43;5.70;;;5.20;99.90;;;;;;5030622;28;20034;-79
2023/12/14 02:52:30;;;;;;;13.10;6.20;;;5.20;99.90;;;;;;5015396;28;20044;-79
2023/12/14 02:54:56;;;;;;;11.23;5.65;;;5.10;99.90;;;;;;5014549;28;20041;-78
2023/12/14 02:57:21;;;;;;;12.38;6.55;;;5.10;99.90;;;;;;5015130;28;20045;-79
2023/12/14 02:59:47;;;;;;;14.27;6.50;;;5.20;99.90;;;;;;5013915;28;20056;-79
2023/12/14 03:02:13;;;;;;;13.45;6.55;;;5.20;99.90;;;;;;5031448;28;20131;-79
2023/12/14 03:04:41;;;;;;;13.00;6.53;;;5.20;99.90;;;;;;5013106;28;20167;-79
2023/12/14 03:07:07;;;;;;;13.68;5.90;;;5.20;99.90;;;;;;5031494;28;20044;-79
2023/12/14 03:09:33;;;;;;;12.30;6.28;;;5.20;99.90;;;;;;5015694;28;20033;-79
2023/12/14 03:12:00;;;;;;;12.20;5.97;;;5.20;99.90;;;;;;5014882;28;20052;-79
2023/12/14 03:14:26;;;;;;;12.98;6.05;;;5.10;99.90;;;;;;5015269;28;20401;-79
2023/12/14 03:16:52;;;;;;;12.57;6.60;;;5.20;99.90;;;;;;5012885;28;20046;-79
2023/12/14 03:19:18;;;;;;;11.70;6.38;;;5.20;99.90;;;;;;5032058;28;20041;-79
2023/12/14 03:21:43;;;;;;;14.15;6.90;;;5.10;99.90;;;;;;5032065;28;20402;-79
2023/12/14 03:24:09;;;;;;;12.77;6.20;;;5.20;99.90;;;;;;5014313;28;20128;-79
2023/12/14 03:26:35;;;;;;;14.63;6.38;;;5.20;99.90;;;;;;5030671;28;20037;-79
2023/12/14 03:29:01;;;;;;;13.25;6.63;;;5.20;99.90;;;;;;5014379;28;20064;-79
2023/12/14 03:31:27;;;;;;;12.40;6.43;;;5.30;99.90;;;;;;5014991;28;20128;-79
2023/12/14 03:33:52;;;;;;;14.77;6.30;;;5.20;99.90;;;;;;5031991;28;20044;-78
2023/12/14 03:36:18;;;;;;;12.32;6.28;;;5.20;99.90;;;;;;5030895;28;20128;-78
2023/12/14 03:38:43;;;;;;;14.70;6.93;;;5.10;99.90;;;;;;5014408;28;20375;-78
2023/12/14 03:41:09;;;;;;;11.18;5.72;;;5.10;99.90;;;;;;5011897;28;20120;-79
2023/12/14 03:43:35;;;;;;;13.77;6.55;;;5.10;99.90;;;;;;5005573;28;20098;-78
2023/12/14 03:46:01;;;;;;;12.63;6.35;;;5.10;99.90;;;;;;5019295;28;20474;-78
2023/12/14 03:48:27;;;;;;;13.57;6.10;;;5.20;99.90;;;;;;4996491;28;20121;-79
2023/12/14 03:50:52;;;;;;;13.20;6.22;;;5.20;99.90;;;;;;5003414;28;20316;-78
2023/12/14 03:53:18;;;;;;;12.23;6.63;;;5.10;99.90;;;;;;4995333;28;20056;-79
2023/12/14 03:55:43;;;;;;;15.73;6.38;;;5.20;99.90;;;;;;5000018;28;20650;-78
2023/12/14 03:58:09;;;;;;;12.80;5.93;;;5.10;99.90;;;;;;5017056;28;20083;-79
2023/12/14 04:00:35;;;;;;;12.75;5.97;;;5.20;99.90;;;;;;5005097;28;20458;-79
2023/12/14 04:03:00;;;;;;;11.40;5.68;;;5.10;99.90;;;;;;5000869;28;20072;-79
2023/12/14 04:05:26;;;;;;;10.93;5.43;;;5.10;99.90;;;;;;5003683;28;20041;-78
2023/12/14 04:07:52;;;;;;;17.73;5.80;;;5.10;99.90;;;;;;5007795;28;20045;-78
2023/12/14 04:10:17;;;;;;;14.50;6.03;;;5.10;99.90;;;;;;4994982;28;20034;-78
2023/12/14 04:12:43;;;;;;;12.13;5.85;;;5.20;99.90;;;;;;5027661;28;20114;-78
2023/12/14 04:15:10;;;;;;;13.27;6.40;;;5.00;99.90;;;;;;5006014;28;20042;-78
2023/12/14 04:17:35;;;;;;;14.75;6.15;;;5.10;99.90;;;;;;5004986;28;21519;-78
2023/12/14 04:20:02;;;;;;;12.38;6.22;;;5.20;99.90;;;;;;5005488;28;20042;-78
2023/12/14 04:22:29;;;;;;;13.38;6.30;;;5.10;99.90;;;;;;5023598;28;20120;-78
2023/12/14 04:24:55;;;;;;;11.55;5.70;;;5.10;99.90;;;;;;5007643;28;20038;-78
2023/12/14 04:27:20;;;;;;;12.95;6.05;;;5.10;99.90;;;;;;5020061;28;20539;-78
2023/12/14 04:29:46;;;;;;;11.88;4.97;;;5.10;99.90;;;;;;5013660;28;20043;-77
2023/12/14 04:32:12;;;;;;;10.50;5.72;;;5.10;99.90;;;;;;5008013;28;20129;-78
2023/12/14 04:34:38;;;;;;;12.80;6.45;;;5.10;99.90;;;;;;5008880;28;20502;-78
2023/12/14 04:37:04;;;;;;;15.55;6.90;;;5.10;99.90;;;;;;5003466;28;20057;-78
2023/12/14 04:39:29;;;;;;;13.27;5.97;;;5.10;99.90;;;;;;4998797;28;20061;-78
2023/12/14 04:41:55;;;;;;;11.48;5.85;;;5.10;99.90;;;;;;5032546;28;20045;-78
2023/12/14 04:44:21;;;;;;;14.80;6.70;;;5.10;99.90;;;;;;5016623;28;20109;-78
2023/12/14 04:46:48;;;;;;;11.40;5.57;;;5.10;99.90;;;;;;5017546;28;20492;-78
2023/12/14 04:49:14;;;;;;;13.15;6.28;;;5.10;99.90;;;;;;5035095;28;20045;-78
2023/12/14 04:51:40;;;;;;;14.07;6.32;;;5.10;99.90;;;;;;5016793;28;20445;-78
2023/12/14 04:54:05;;;;;;;15.20;6.57;;;5.10;99.90;;;;;;5016525;28;20038;-78
2023/12/14 04:56:31;;;;;;;12.70;6.47;;;5.10;99.90;;;;;;5018216;28;20034;-78
2023/12/14 04:58:58;;;;;;;13.13;5.75;;;5.00;99.90;;;;;;5018052;28;20111;-78
2023/12/14 05:01:26;;;;;;;11.23;5.00;;;5.00;99.90;;;;;;5001092;28;20475;-78
2023/12/14 05:03:52;;;;;;;15.38;6.70;;;5.10;99.90;;;;;;5017183;28;20029;-78
2023/12/14 05:06:18;;;;;;;12.40;5.45;;;5.10;99.90;;;;;;5034540;28;20068;-78
2023/12/14 05:08:44;;;;;;;11.95;5.88;;;5.10;99.90;;;;;;5032670;28;20080;-78
2023/12/14 05:11:09;;;;;;;11.45;5.57;;;5.00;99.90;;;;;;5016757;28;20406;-78
2023/12/14 05:13:35;;;;;;;10.55;5.15;;;5.10;99.90;;;;;;5017859;28;20041;-78
2023/12/14 05:16:00;;;;;;;11.93;6.50;;;5.00;99.90;;;;;;5033301;28;20034;-79
2023/12/14 05:18:27;;;;;;;12.93;5.80;;;5.10;99.90;;;;;;5034330;28;20132;-79
2023/12/14 05:20:53;;;;;;;11.82;5.30;;;5.10;99.90;;;;;;5016600;28;20237;-78
2023/12/14 05:23:19;;;;;;;12.15;6.10;;;5.10;99.90;;;;;;5034188;28;20041;-78
2023/12/14 05:25:45;;;;;;;12.85;5.47;;;5.20;99.90;;;;;;5032814;28;20035;-78
2023/12/14 05:28:10;;;;;;;14.50;6.40;;;5.10;99.90;;;;;;5016767;28;20099;-78
2023/12/14 05:30:36;;;;;;;10.27;5.72;;;5.20;99.90;;;;;;5017534;28;20041;-78
2023/12/14 05:33:02;;;;;;;13.35;6.03;;;5.10;99.90;;;;;;5017647;28;20041;-78
2023/12/14 05:35:27;;;;;;;12.68;5.97;;;5.10;99.90;;;;;;5032342;28;20049;-78
2023/12/14 05:37:53;;;;;;;14.57;6.22;;;5.00;99.90;;;;;;5016319;28;20512;-78
2023/12/14 05:40:19;;;;;;;11.20;5.85;;;5.10;99.90;;;;;;5022313;28;20120;-78
2023/12/14 05:42:45;;;;;;;11.52;6.07;;;5.10;99.90;;;;;;4994871;28;20152;-78
2023/12/14 05:45:10;;;;;;;11.10;5.70;;;5.00;99.90;;;;;;5015096;28;20091;-77
2023/12/14 05:47:37;;;;;;;10.68;5.70;;;5.10;99.90;;;;;;5008291;28;20046;-78
2023/12/14 05:50:04;;;;;;;11.60;5.60;;;5.00;99.90;;;;;;4995288;28;20088;-78
2023/12/14 05:52:30;;;;;;;11.70;5.57;;;5.00;99.90;;;;;;5006524;28;20042;-78
2023/12/14 05:54:56;;;;;;;11.48;6.30;;;5.00;99.90;;;;;;5003141;28;20042;-78
2023/12/14 05:57:21;;;;;;;11.15;5.95;;;5.10;99.90;;;;;;5001684;28;20088;-78
2023/12/14 05:59:47;;;;;;;11.95;5.85;;;5.00;99.90;;;;;;5002173;28;20052;-78
2023/12/14 06:02:13;;;;;;;11.13;5.45;;;5.00;99.90;;;;;;5007390;28;20133;-78
2023/12/14 06:04:38;;;;;;;12.80;6.10;;;5.00;99.90;;;;;;5007030;28;20045;-78
2023/12/14 06:07:04;;;;;;;11.85;6.10;;;5.00;99.90;;;;;;4989618;28;20090;-78
2023/12/14 06:09:33;;;;;;;12.55;6.63;;;5.10;99.90;;;;;;5005662;28;21629;-78
2023/12/14 06:12:03;;;;;;;13.55;6.55;;;5.00;99.90;;;;;;4996910;28;20054;-78
2023/12/14 06:14:30;;;;;;;12.82;6.68;;;5.00;99.90;;;;;;5011470;28;20059;-78
2023/12/14 06:16:55;;;;;;;11.05;5.80;;;5.00;99.90;;;;;;5023609;28;20041;-78
2023/12/14 06:19:21;;;;;;;11.25;5.88;;;5.00;99.90;;;;;;5006040;28;20562;-77
2023/12/14 06:21:47;;;;;;;14.40;6.50;;;5.00;99.90;;;;;;4995249;28;20065;-78
2023/12/14 06:24:13;;;;;;;12.52;6.18;;;5.00;99.90;;;;;;5020198;28;20041;-78
2023/12/14 06:26:44;;;;;;;13.40;5.85;;;5.10;99.90;;;;;;5006452;28;20037;-78
2023/12/14 06:29:10;;;;;;;11.70;5.43;;;5.00;99.90;;;;;;5008381;28;20034;-79
2023/12/14 06:31:36;;;;;;;11.40;5.85;;;5.00;99.90;;;;;;4994931;28;20708;-78
2023/12/14 06:34:03;;;;;;;10.70;5.47;;;5.00;99.90;;;;;;5005623;28;20042;-79
2023/12/14 06:36:33;;;;;;;11.98;5.72;;;5.00;99.90;;;;;;5007387;28;20501;-78
2023/12/14 06:38:59;;;;;;;11.43;5.43;;;5.00;99.90;;;;;;5005894;28;20490;-78
2023/12/14 06:41:26;;;;;;;10.85;5.75;;;5.10;99.90;;;;;;5019946;28;20410;-78
2023/12/14 06:43:52;;;;;;;11.27;6.05;;;5.00;99.90;;;;;;5018343;28;20073;-78
2023/12/14 06:46:18;;;;;;;10.85;5.45;;;5.00;99.90;;;;;;5018363;28;20056;-78
2023/12/14 06:48:45;;;;;;;12.93;5.90;;;5.00;99.90;;;;;;5025447;28;20033;-78
2023/12/14 06:51:11;;;;;;;11.73;5.03;;;5.00;99.90;;;;;;5023003;28;20053;-78
2023/12/14 06:53:40;;;;;;;11.15;5.43;;;5.00;99.90;;;;;;4992070;28;20038;-77
2023/12/14 06:56:09;;;;;;;9.93;5.45;;;5.00;99.90;;;;;;5005964;28;20065;-78
2023/12/14 06:58:35;;;;;;;12.18;6.03;;;5.00;99.90;;;;;;5006701;28;20191;-78
2023/12/14 07:01:01;;;;;;;9.82;5.30;;;5.00;99.90;;;;;;5007000;28;20056;-78
2023/12/14 07:03:26;;;;;;;11.75;5.50;;;5.00;99.90;;;;;;5008517;28;20955;-78
2023/12/14 07:05:52;;;;;;;11.07;5.50;;;5.10;99.90;;;;;;5005739;28;20038;-78
2023/12/14 07:08:18;;;;;;;11.25;5.68;;;5.10;99.90;;;;;;4993406;28;20560;-78
2023/12/14 07:10:43;;;;;;;11.55;5.50;;;5.10;99.90;;;;;;5005058;28;20065;-78
2023/12/14 07:13:09;;;;;;;12.02;5.75;;;5.10;99.90;;;;;;5005871;28;20179;-78
2023/12/14 07:15:35;;;;;;;10.63;5.53;;;5.10;99.90;;;;;;4995934;28;20042;-78
2023/12/14 07:18:00;;;;;;;11.95;5.82;;;5.10;99.90;;;;;;5012842;28;20242;-78
2023/12/14 07:20:26;;;;;;;14.43;5.82;;;5.00;99.90;;;;;;5003221;28;20474;-78
2023/12/14 07:22:51;;;;;;;9.77;5.10;;;5.00;99.90;;;;;;5002117;28;20045;-78
2023/12/14 07:25:17;;;;;;;10.98;5.95;;;5.00;99.90;;;;;;4993928;28;20037;-78
2023/12/14 07:27:43;;;;;;;14.73;5.47;;;5.00;99.90;;;;;;4988626;28;20041;-78
2023/12/14 07:30:09;;;;;;;11.43;5.30;;;5.00;99.90;;;;;;4992685;28;20612;-78
2023/12/14 07:32:35;;;;;;;10.20;4.97;;;5.00;99.90;;;;;;5006970;28;20056;-77
2023/12/14 07:35:01;;;;;;;12.98;5.40;;;5.00;99.90;;;;;;4995493;28;20045;-79
2023/12/14 07:37:26;;;;;;;9.40;4.95;;;5.10;99.90;;;;;;5001172;28;20505;-79
2023/12/14 07:39:52;;;;;;;10.68;5.63;;;5.00;99.90;;;;;;5000621;28;20401;-78
2023/12/14 07:42:19;;;;;;;9.95;5.10;;;5.00;99.90;;;;;;5007839;28;20510;-78
2023/12/14 07:44:46;;;;;;;10.95;5.88;;;5.10;99.90;;;;;;5008674;28;20033;-78
2023/12/14 07:47:11;;;;;;;16.48;7.40;;;5.00;99.90;;;;;;4993102;28;20401;-78
2023/12/14 07:49:37;;;;;;;12.68;6.57;;;5.00;99.90;;;;;;4997526;28;20037;-78
2023/12/14 07:52:03;;;;;;;14.85;6.90;;;5.00;99.90;;;;;;5001331;28;20046;-78
2023/12/14 07:54:29;;;;;;;15.98;6.65;;;5.00;99.90;;;;;;5008358;28;20045;-78
2023/12/14 07:56:55;;;;;;;16.42;6.97;;;5.00;99.90;;;;;;5013530;28;20049;-78
2023/12/14 07:59:20;;;;;;;11.95;6.25;;;5.00;99.90;;;;;;5022886;28;20426;-78
2023/12/14 08:01:47;;;;;;;14.50;6.85;;;5.00;99.90;;;;;;5004443;28;20050;-79
2023/12/14 08:04:12;;;;;;;14.73;7.18;;;5.00;99.90;;;;;;5008873;28;20448;-78
2023/12/14 08:06:41;;;;;;;18.02;8.13;;;5.00;99.90;;;;;;5014553;28;20095;-78
2023/12/14 08:09:07;;;;;;;16.15;7.45;;;5.00;99.90;;;;;;4991435;28;20045;-78
2023/12/14 08:11:33;;;;;;;15.25;7.85;;;5.00;99.90;;;;;;5008438;28;20042;-78
2023/12/14 08:13:59;;;;;;;16.67;7.65;;;5.00;99.90;;;;;;4997758;28;20124;-78
2023/12/14 08:16:25;;;;;;;16.50;8.18;;;5.10;99.90;;;;;;5015683;28;20075;-78
2023/12/14 08:18:50;;;;;;;15.57;7.70;;;5.00;99.90;;;;;;4993857;28;20052;-78
2023/12/14 08:21:17;;;;;;;13.18;7.45;;;5.10;99.90;;;;;;5010111;28;20052;-78
2023/12/14 08:23:43;;;;;;;15.52;8.10;;;5.10;99.90;;;;;;5034068;28;20427;-78
2023/12/14 08:26:11;;;;;;;15.02;7.80;;;5.10;99.90;;;;;;5009079;28;20077;-78
2023/12/14 08:28:37;;;;;;;16.73;7.30;;;5.10;99.90;;;;;;5008415;28;20025;-78
2023/12/14 08:31:04;;;;;;;15.45;7.05;;;5.10;99.90;;;;;;5013407;28;20091;-79
2023/12/14 08:33:29;;;;;;;16.65;8.40;;;5.10;99.90;;;;;;5009217;28;20394;-78
2023/12/14 08:35:55;;;;;;;14.07;7.40;;;5.10;99.90;;;;;;4998826;28;20458;-77
2023/12/14 08:38:21;;;;;;;17.75;8.30;;;5.10;99.90;;;;;;4987121;28;20034;-78
2023/12/14 08:40:47;;;;;;;21.13;8.43;;;5.10;99.90;;;;;;5031962;28;20042;-78
2023/12/14 08:43:13;;;;;;;15.95;7.93;;;5.20;99.90;;;;;;5028738;28;20056;-78
2023/12/14 08:45:38;;;;;;;19.25;8.18;;;5.20;99.90;;;;;;5009522;28;20045;-78
2023/12/14 08:48:05;;;;;;;18.17;7.90;;;5.20;99.90;;;;;;4998149;28;20045;-78
2023/12/14 08:50:30;;;;;;;15.95;7.55;;;5.20;99.90;;;;;;5017324;28;20037;-78
2023/12/14 08:52:58;;;;;;;20.02;8.27;;;5.10;99.90;;;;;;5005620;28;20132;-78
2023/12/14 08:55:24;;;;;;;16.00;8.30;;;5.20;99.90;;;;;;5004446;28;20056;-78
2023/12/14 08:57:50;;;;;;;19.27;9.40;;;5.20;99.90;;;;;;5006867;28;20087;-78
2023/12/14 09:00:17;;;;;;;16.98;7.43;;;5.20;99.90;;;;;;5018216;28;20448;-78
2023/12/14 09:02:45;;;;;;;15.30;8.30;;;5.20;99.90;;;;;;5003223;28;20635;-78
2023/12/14 09:05:12;;;;;;;15.13;7.75;;;5.20;99.90;;;;;;5007944;28;20034;-78
2023/12/14 09:07:38;;;;;;;16.30;8.30;;;5.20;99.90;;;;;;5008491;28;20108;-78
2023/12/14 09:10:04;;;;;;;16.48;7.82;;;5.30;99.90;;;;;;4988395;28;20666;-78
2023/12/14 09:12:30;;;;;;;18.60;8.45;;;5.30;99.90;;;;;;5001270;28;20050;-78
2023/12/14 09:14:55;;;;;;;16.23;8.30;;;5.30;99.90;;;;;;5008671;28;20037;-78
2023/12/14 09:17:21;;;;;;;17.05;8.45;;;5.30;99.90;;;;;;5021155;28;20049;-78
2023/12/14 09:19:47;;;;;;;17.77;8.45;;;5.30;99.90;;;;;;5005179;28;20037;-78
2023/12/14 09:22:12;;;;;;;16.88;8.90;;;5.30;99.90;;;;;;5001540;28;20053;-78
2023/12/14 09:24:38;;;;;;;17.75;8.07;;;5.40;99.90;;;;;;4994430;28;20037;-78
2023/12/14 09:27:04;;;;;;;14.27;7.88;;;5.30;99.90;;;;;;5006158;28;20511;-78
2023/12/14 09:29:30;;;;;;;16.25;7.88;;;5.30;99.90;;;;;;4986580;28;20135;-78
2023/12/14 09:31:55;;;;;;;15.88;8.20;;;5.40;99.90;;;;;;4990033;28;20073;-77
2023/12/14 09:34:21;;;;;;;20.10;8.88;;;5.30;99.90;;;;;;4987558;28;20486;-77
2023/12/14 09:36:47;;;;;;;19.42;8.93;;;5.40;99.90;;;;;;5022506;28;20132;-77
2023/12/14 09:39:13;;;;;;;19.08;8.50;;;5.40;99.90;;;;;;5001000;28;20137;-78
2023/12/14 09:41:39;;;;;;;16.45;8.32;;;5.40;99.90;;;;;;5022228;28;20060;-73
2023/12/14 09:44:06;;;;;;;18.67;8.55;;;5.40;99.90;;;;;;5012102;28;20033;-80
2023/12/14 09:46:36;;;;;;;16.90;8.50;;;5.40;99.90;;;;;;5014975;28;20041;-80
2023/12/14 09:49:04;;;;;;;18.00;9.23;;;5.40;99.90;;;;;;5015693;28;20037;-80
2023/12/14 09:51:30;;;;;;;18.55;8.48;;;5.40;99.90;;;;;;5030805;28;20124;-80
2023/12/14 09:53:58;;;;;;;14.60;8.50;;;5.40;99.90;;;;;;5032343;28;20072;-80
2023/12/14 09:56:27;;;;;;;19.50;8.25;;;5.40;99.90;;;;;;5022717;28;20123;-80
2023/12/14 09:58:53;;;;;;;17.25;8.93;;;5.40;99.90;;;;;;5025956;28;20057;-80
2023/12/14 10:01:26;;;;;;;18.00;8.80;;;5.50;99.90;;;;;;5029419;28;20041;-79
2023/12/14 10:04:15;;;;;;;17.38;8.48;;;5.50;99.90;;;;;;5033460;28;20081;-80
2023/12/14 10:06:43;;;;;;;17.90;8.90;;;5.50;99.90;;;;;;5010282;28;20039;-79
2023/12/14 10:09:09;;;;;;;18.17;8.68;;;5.50;99.90;;;;;;5029153;28;20045;-80
2023/12/14 10:11:36;;;;;;;18.17;9.15;;;5.50;99.90;;;;;;5016411;28;20037;-79
2023/12/14 10:14:03;;;;;;;16.40;8.88;;;5.50;99.90;;;;;;5027231;28;20045;-81
2023/12/14 10:16:30;;;;;;;18.00;9.05;;;5.50;99.90;;;;;;5024149;28;20038;-80
2023/12/14 10:18:57;;;;;;;17.98;8.75;;;5.50;99.90;;;;;;5012324;28;20041;-81
2023/12/14 10:21:25;;;;;;;14.85;8.15;;;5.50;99.90;;;;;;5030321;28;20402;-81
2023/12/14 10:23:51;;;;;;;20.15;9.20;;;5.50;99.90;;;;;;5027589;28;20474;-81
2023/12/14 10:26:17;;;;;;;20.58;9.65;;;5.60;99.90;;;;;;5005761;28;20127;-81
2023/12/14 10:28:43;;;;;;;18.10;8.38;;;5.60;99.90;;;;;;5013098;28;20038;-80
2023/12/14 10:31:10;;;;;;;17.88;10.05;;;5.60;99.90;;;;;;5021969;28;20037;-81
2023/12/14 10:33:35;;;;;;;19.42;9.88;;;5.60;99.90;;;;;;5012432;28;20049;-81
2023/12/14 10:36:02;;;;;;;18.63;8.77;;;5.60;99.90;;;;;;5026952;28;20401;-80
2023/12/14 10:38:29;;;;;;;19.20;9.13;;;5.60;99.90;;;;;;5017704;28;20515;-81
2023/12/14 10:40:57;;;;;;;18.48;8.65;;;5.60;99.90;;;;;;5031917;28;20045;-81
2023/12/14 10:43:22;;;;;;;17.85;9.50;;;5.60;99.90;;;;;;5030937;28;20494;-81
2023/12/14 10:45:48;;;;;;;17.17;8.45;;;5.60;99.90;;;;;;5028520;28;20044;-81
2023/12/14 10:48:14;;;;;;;16.05;9.10;;;5.70;99.90;;;;;;5005484;28;20033;-81
2023/12/14 10:50:42;;;;;;;20.42;9.70;;;5.60;99.90;;;;;;5012804;28;20030;-81
2023/12/14 10:53:09;;;;;;;19.48;9.23;;;5.70;99.90;;;;;;5013942;28;20072;-81
2023/12/14 10:55:42;;;;;;;17.83;8.18;;;5.80;99.90;;;;;;5010209;28;20037;-80
2023/12/14 10:58:12;;;;;;;20.05;10.13;;;5.70;99.90;;;;;;5030474;28;20048;-81
2023/12/14 11:00:38;;;;;;;18.23;9.35;;;5.80;99.90;;;;;;5014800;28;20053;-81
2023/12/14 11:03:05;;;;;;;18.70;9.95;;;5.80;99.90;;;;;;5029807;28;20040;-81
2023/12/14 11:05:36;;;;;;;19.42;9.93;;;5.80;99.90;;;;;;5007176;28;20501;-81
2023/12/14 11:08:12;;;;;;;22.75;9.80;;;5.80;99.90;;;;;;5014429;28;20044;-81
2023/12/14 11:10:40;;;;;;;17.48;9.35;;;5.90;99.90;;;;;;5028478;28;20071;-81
2023/12/14 11:13:14;;;;;;;21.98;10.32;;;5.90;99.90;;;;;;5013889;28;20056;-81
2023/12/14 11:15:49;;;;;;;21.30;9.07;;;5.90;99.90;;;;;;5009252;28;20076;-81
2023/12/14 11:18:15;;;;;;;21.13;10.18;;;5.80;99.90;;;;;;5022331;28;20468;-81
2023/12/14 11:21:00;;;;;;;20.10;9.40;;;5.80;99.90;;;;;;5039803;28;20085;-80
2023/12/14 11:23:26;;;;;;;15.40;8.45;;;5.80;99.90;;;;;;5022672;28;20053;-81
2023/12/14 11:25:53;;;;;;;21.52;9.18;;;5.80;99.90;;;;;;4998874;28;20034;-80
2023/12/14 11:28:20;;;;;;;22.35;9.90;;;5.80;99.90;;;;;;5014557;28;20167;-81
2023/12/14 11:30:46;;;;;;;17.65;9.82;;;5.90;99.90;;;;;;5008120;28;20038;-80
2023/12/14 11:33:13;;;;;;;19.00;9.30;;;5.90;99.90;;;;;;5014135;28;20060;-80
2023/12/14 11:35:38;;;;;;;21.58;9.32;;;6.00;99.90;;;;;;5030049;28;20037;-80
2023/12/14 11:38:10;;;;;;;19.50;9.57;;;5.90;99.90;;;;;;5024940;28;20050;-81
2023/12/14 11:40:42;;;;;;;18.45;9.10;;;5.90;99.90;;;;;;5031926;28;20406;-81
2023/12/14 11:43:09;;;;;;;20.63;9.27;;;5.90;99.90;;;;;;5014647;28;20517;-80
2023/12/14 11:45:40;;;;;;;18.45;9.50;;;5.90;99.90;;;;;;5029336;28;20148;-80
2023/12/14 11:48:10;;;;;;;18.50;9.05;;;5.90;99.90;;;;;;5028914;28;20071;-80
2023/12/14 11:50:37;;;;;;;18.88;9.02;;;6.00;99.90;;;;;;5014267;28;20398;-81
2023/12/14 11:53:03;;;;;;;17.50;8.27;;;6.00;99.90;;;;;;5027253;28;20092;-81
2023/12/14 11:55:30;;;;;;;19.23;8.75;;;6.10;99.90;;;;;;5017524;28;20116;-81
2023/12/14 11:57:57;;;;;;;16.65;8.95;;;6.20;99.90;;;;;;5004592;28;20068;-81
2023/12/14 12:00:28;;;;;;;20.60;8.65;;;6.20;99.90;;;;;;5028808;28;20053;-80
2023/12/14 12:03:10;;;;;;;16.75;9.25;;;6.00;99.90;;;;;;5028573;28;20042;-79
2023/12/14 12:05:44;;;;;;;15.07;7.93;;;6.00;99.90;;;;;;5013466;28;20371;-79
2023/12/14 12:08:11;;;;;;;15.45;8.35;;;6.10;99.90;;;;;;5028054;28;20038;-79
2023/12/14 12:10:41;;;;;;;20.77;8.55;;;6.10;99.90;;;;;;5030339;28;20394;-79
2023/12/14 12:13:14;;;;;;;16.83;8.68;;;6.10;99.90;;;;;;5026075;28;20049;-78
2023/12/14 12:15:40;;;;;;;15.35;7.95;;;6.20;99.90;;;;;;5028626;28;20033;-78
2023/12/14 12:18:08;;;;;;;16.05;8.32;;;6.10;99.90;;;;;;5011836;28;20059;-78
2023/12/14 12:20:34;;;;;;;15.95;8.00;;;6.20;99.90;;;;;;5029617;28;20449;-78
2023/12/14 12:23:01;;;;;;;16.65;8.75;;;6.20;99.90;;;;;;5030854;28;20414;-78
2023/12/14 12:25:27;;;;;;;16.70;8.40;;;6.20;99.90;;;;;;5011617;28;20033;-78
2023/12/14 12:27:55;;;;;;;17.52;9.73;;;6.20;99.90;;;;;;5013895;28;20038;-83
2023/12/14 12:30:21;;;;;;;13.32;7.50;;;6.20;99.90;;;;;;5012627;28;20121;-78
2023/12/14 12:32:47;;;;;;;15.48;8.55;;;6.30;99.90;;;;;;5011818;28;20556;-78
2023/12/14 12:35:13;;;;;;;19.13;8.55;;;6.40;99.90;;;;;;5028765;28;20038;-78
2023/12/14 12:37:39;;;;;;;16.25;8.35;;;6.40;99.90;;;;;;5014016;28;20045;-78
2023/12/14 12:40:05;;;;;;;14.57;7.68;;;6.30;99.90;;;;;;5012813;28;20125;-78
2023/12/14 12:42:31;;;;;;;15.70;7.45;;;6.50;99.90;;;;;;5029259;28;20125;-78
2023/12/14 12:44:57;;;;;;;14.50;8.35;;;6.50;99.90;;;;;;5013371;28;20179;-78